sensor_id;sensor_type;location;lat;lon;timestamp;P1;durP1;ratioP1;P2;durP2;ratioP2
31045;SDS011;17711;54.018;9.300;2023-07-02T00:02:01;17.88;;;17.17;;
31045;SDS011;17711;54.018;9.300;2023-07-02T00:04:36;16.85;;;16.15;;
31045;SDS011;17711;54.018;9.300;2023-07-02T00:07:10;19.70;;;18.90;;
31045;SDS011;17711;54.018;9.300;2023-07-02T00:09:43;16.80;;;16.13;;
31045;SDS011;17711;54.018;9.300;2023-07-02T00:12:16;20.48;;;19.58;;
31045;SDS011;17711;54.018;9.300;2023-07-02T00:14:52;16.88;;;16.17;;
31045;SDS011;17711;54.018;9.300;2023-07-02T00:17:27;17.20;;;16.50;;
31045;SDS011;17711;54.018;9.300;2023-07-02T00:19:59;16.83;;;16.13;;
31045;SDS011;17711;54.018;9.300;2023-07-02T00:22:35;17.35;;;16.65;;
31045;SDS011;17711;54.018;9.300;2023-07-02T00:25:22;19.15;;;18.35;;
31045;SDS011;17711;54.018;9.300;2023-07-02T00:27:53;32.53;;;31.08;;
31045;SDS011;17711;54.018;9.300;2023-07-02T00:30:29;17.73;;;17.02;;
31045;SDS011;17711;54.018;9.300;2023-07-02T00:33:02;17.77;;;17.08;;
31045;SDS011;17711;54.018;9.300;2023-07-02T00:35:37;16.95;;;16.25;;
31045;SDS011;17711;54.018;9.300;2023-07-02T00:38:16;19.52;;;18.73;;
31045;SDS011;17711;54.018;9.300;2023-07-02T00:41:02;18.60;;;17.85;;
31045;SDS011;17711;54.018;9.300;2023-07-02T00:43:37;23.98;;;23.00;;
31045;SDS011;17711;54.018;9.300;2023-07-02T00:46:14;20.10;;;19.23;;
31045;SDS011;17711;54.018;9.300;2023-07-02T00:48:48;16.75;;;16.10;;
31045;SDS011;17711;54.018;9.300;2023-07-02T00:51:23;20.05;;;19.17;;
31045;SDS011;17711;54.018;9.300;2023-07-02T00:53:56;16.42;;;15.82;;
31045;SDS011;17711;54.018;9.300;2023-07-02T00:56:32;16.48;;;15.85;;
31045;SDS011;17711;54.018;9.300;2023-07-02T00:59:04;17.13;;;16.42;;
31045;SDS011;17711;54.018;9.300;2023-07-02T01:04:25;17.50;;;16.80;;
31045;SDS011;17711;54.018;9.300;2023-07-02T01:06:57;17.90;;;17.20;;
31045;SDS011;17711;54.018;9.300;2023-07-02T01:09:41;25.73;;;24.67;;
31045;SDS011;17711;54.018;9.300;2023-07-02T01:12:11;19.92;;;19.10;;
31045;SDS011;17711;54.018;9.300;2023-07-02T01:14:46;17.20;;;16.50;;
31045;SDS011;17711;54.018;9.300;2023-07-02T01:17:26;20.27;;;19.38;;
31045;SDS011;17711;54.018;9.300;2023-07-02T01:20:20;17.98;;;17.27;;
31045;SDS011;17711;54.018;9.300;2023-07-02T01:22:53;21.58;;;20.67;;
31045;SDS011;17711;54.018;9.300;2023-07-02T01:25:39;16.70;;;16.05;;
31045;SDS011;17711;54.018;9.300;2023-07-02T01:28:14;22.30;;;21.30;;
31045;SDS011;17711;54.018;9.300;2023-07-02T01:30:59;16.88;;;16.17;;
31045;SDS011;17711;54.018;9.300;2023-07-02T01:33:34;27.50;;;26.35;;
31045;SDS011;17711;54.018;9.300;2023-07-02T01:36:18;18.67;;;17.88;;
31045;SDS011;17711;54.018;9.300;2023-07-02T01:38:47;16.75;;;16.05;;
31045;SDS011;17711;54.018;9.300;2023-07-02T01:41:36;18.10;;;17.30;;
31045;SDS011;17711;54.018;9.300;2023-07-02T01:44:13;19.05;;;18.25;;
31045;SDS011;17711;54.018;9.300;2023-07-02T01:46:56;16.95;;;16.25;;
31045;SDS011;17711;54.018;9.300;2023-07-02T01:49:34;16.88;;;16.17;;
31045;SDS011;17711;54.018;9.300;2023-07-02T01:52:25;21.83;;;20.90;;
31045;SDS011;17711;54.018;9.300;2023-07-02T01:55:01;16.30;;;15.70;;
31045;SDS011;17711;54.018;9.300;2023-07-02T01:57:37;16.55;;;15.90;;
31045;SDS011;17711;54.018;9.300;2023-07-02T02:00:11;19.35;;;18.55;;
31045;SDS011;17711;54.018;9.300;2023-07-02T02:02:47;17.35;;;16.65;;
31045;SDS011;17711;54.018;9.300;2023-07-02T02:05:25;18.98;;;18.17;;
31045;SDS011;17711;54.018;9.300;2023-07-02T02:08:06;17.08;;;16.38;;
31045;SDS011;17711;54.018;9.300;2023-07-02T02:10:38;16.60;;;15.90;;
31045;SDS011;17711;54.018;9.300;2023-07-02T02:13:21;19.60;;;18.75;;
31045;SDS011;17711;54.018;9.300;2023-07-02T02:15:52;17.50;;;16.75;;
31045;SDS011;17711;54.018;9.300;2023-07-02T02:18:25;17.30;;;16.60;;
31045;SDS011;17711;54.018;9.300;2023-07-02T02:21:10;19.50;;;18.67;;
31045;SDS011;17711;54.018;9.300;2023-07-02T02:23:49;29.33;;;28.08;;
31045;SDS011;17711;54.018;9.300;2023-07-02T02:26:22;19.02;;;18.23;;
31045;SDS011;17711;54.018;9.300;2023-07-02T02:28:53;17.90;;;17.20;;
31045;SDS011;17711;54.018;9.300;2023-07-02T02:31:25;16.55;;;15.85;;
31045;SDS011;17711;54.018;9.300;2023-07-02T02:34:12;18.88;;;18.08;;
31045;SDS011;17711;54.018;9.300;2023-07-02T02:36:51;16.30;;;15.70;;
31045;SDS011;17711;54.018;9.300;2023-07-02T02:39:44;16.48;;;15.77;;
31045;SDS011;17711;54.018;9.300;2023-07-02T02:42:34;16.45;;;15.77;;
31045;SDS011;17711;54.018;9.300;2023-07-02T02:45:07;17.48;;;16.75;;
31045;SDS011;17711;54.018;9.300;2023-07-02T02:47:40;16.70;;;16.00;;
31045;SDS011;17711;54.018;9.300;2023-07-02T02:50:18;19.35;;;18.52;;
31045;SDS011;17711;54.018;9.300;2023-07-02T02:53:02;16.85;;;16.15;;
31045;SDS011;17711;54.018;9.300;2023-07-02T02:55:45;17.02;;;16.33;;
31045;SDS011;17711;54.018;9.300;2023-07-02T02:58:17;19.08;;;18.27;;
31045;SDS011;17711;54.018;9.300;2023-07-02T03:01:01;16.98;;;16.27;;
31045;SDS011;17711;54.018;9.300;2023-07-02T03:03:40;17.00;;;16.30;;
31045;SDS011;17711;54.018;9.300;2023-07-02T03:06:17;49.72;;;47.55;;
31045;SDS011;17711;54.018;9.300;2023-07-02T03:09:00;33.15;;;31.70;;
31045;SDS011;17711;54.018;9.300;2023-07-02T03:11:42;16.80;;;16.10;;
31045;SDS011;17711;54.018;9.300;2023-07-02T03:14:15;19.77;;;18.95;;
31045;SDS011;17711;54.018;9.300;2023-07-02T03:16:46;16.73;;;16.02;;
31045;SDS011;17711;54.018;9.300;2023-07-02T03:19:30;16.90;;;16.20;;
31045;SDS011;17711;54.018;9.300;2023-07-02T03:22:08;17.48;;;16.75;;
31045;SDS011;17711;54.018;9.300;2023-07-02T03:24:48;16.90;;;16.20;;
31045;SDS011;17711;54.018;9.300;2023-07-02T03:27:23;20.88;;;19.98;;
31045;SDS011;17711;54.018;9.300;2023-07-02T03:30:02;17.20;;;16.50;;
31045;SDS011;17711;54.018;9.300;2023-07-02T03:32:33;17.30;;;16.60;;
31045;SDS011;17711;54.018;9.300;2023-07-02T03:35:12;19.67;;;18.88;;
31045;SDS011;17711;54.018;9.300;2023-07-02T03:37:47;16.75;;;16.05;;
31045;SDS011;17711;54.018;9.300;2023-07-02T03:40:17;19.67;;;18.83;;
31045;SDS011;17711;54.018;9.300;2023-07-02T03:43:04;17.75;;;17.05;;
31045;SDS011;17711;54.018;9.300;2023-07-02T03:45:49;16.30;;;15.70;;
31045;SDS011;17711;54.018;9.300;2023-07-02T03:48:36;16.85;;;16.15;;
31045;SDS011;17711;54.018;9.300;2023-07-02T03:51:22;21.45;;;20.52;;
31045;SDS011;17711;54.018;9.300;2023-07-02T03:53:56;18.23;;;17.52;;
31045;SDS011;17711;54.018;9.300;2023-07-02T03:56:39;18.08;;;17.38;;
31045;SDS011;17711;54.018;9.300;2023-07-02T03:59:27;21.25;;;20.35;;
31045;SDS011;17711;54.018;9.300;2023-07-02T04:02:02;19.33;;;18.52;;
31045;SDS011;17711;54.018;9.300;2023-07-02T04:04:36;18.10;;;17.40;;
31045;SDS011;17711;54.018;9.300;2023-07-02T04:07:05;18.00;;;17.30;;
31045;SDS011;17711;54.018;9.300;2023-07-02T04:09:45;17.25;;;16.55;;
31045;SDS011;17711;54.018;9.300;2023-07-02T04:12:25;26.47;;;25.37;;
31045;SDS011;17711;54.018;9.300;2023-07-02T04:15:16;17.95;;;17.25;;
31045;SDS011;17711;54.018;9.300;2023-07-02T04:17:53;16.98;;;16.27;;
31045;SDS011;17711;54.018;9.300;2023-07-02T04:20:28;18.15;;;17.45;;
31045;SDS011;17711;54.018;9.300;2023-07-02T04:22:59;21.38;;;20.48;;
31045;SDS011;17711;54.018;9.300;2023-07-02T04:25:36;21.35;;;20.45;;
31045;SDS011;17711;54.018;9.300;2023-07-02T04:28:26;18.58;;;17.77;;
31045;SDS011;17711;54.018;9.300;2023-07-02T04:31:09;22.73;;;21.83;;
31045;SDS011;17711;54.018;9.300;2023-07-02T04:33:39;41.22;;;39.15;;
31045;SDS011;17711;54.018;9.300;2023-07-02T04:36:15;26.58;;;25.45;;
31045;SDS011;17711;54.018;9.300;2023-07-02T04:39:04;19.73;;;18.92;;
31045;SDS011;17711;54.018;9.300;2023-07-02T04:41:37;19.25;;;18.45;;
31045;SDS011;17711;54.018;9.300;2023-07-02T04:44:11;21.23;;;20.35;;
31045;SDS011;17711;54.018;9.300;2023-07-02T04:47:00;18.90;;;18.10;;
31045;SDS011;17711;54.018;9.300;2023-07-02T04:49:31;20.10;;;19.30;;
31045;SDS011;17711;54.018;9.300;2023-07-02T04:52:00;22.33;;;21.42;;
31045;SDS011;17711;54.018;9.300;2023-07-02T04:54:35;19.60;;;18.73;;
31045;SDS011;17711;54.018;9.300;2023-07-02T04:57:08;21.38;;;20.50;;
31045;SDS011;17711;54.018;9.300;2023-07-02T04:59:45;33.45;;;32.03;;
31045;SDS011;17711;54.018;9.300;2023-07-02T05:02:18;21.85;;;20.85;;
31045;SDS011;17711;54.018;9.300;2023-07-02T05:04:55;19.05;;;18.25;;
31045;SDS011;17711;54.018;9.300;2023-07-02T05:07:40;23.02;;;22.08;;
31045;SDS011;17711;54.018;9.300;2023-07-02T05:10:20;20.00;;;19.13;;
31045;SDS011;17711;54.018;9.300;2023-07-02T05:15:37;59.25;;;56.05;;
31045;SDS011;17711;54.018;9.300;2023-07-02T05:18:31;27.33;;;26.10;;
31045;SDS011;17711;54.018;9.300;2023-07-02T05:21:05;20.70;;;19.80;;
31045;SDS011;17711;54.018;9.300;2023-07-02T05:23:40;157.15;;;144.52;;
31045;SDS011;17711;54.018;9.300;2023-07-02T05:26:12;35.58;;;34.00;;
31045;SDS011;17711;54.018;9.300;2023-07-02T05:28:47;24.65;;;23.00;;
31045;SDS011;17711;54.018;9.300;2023-07-02T05:31:17;69.15;;;65.75;;
31045;SDS011;17711;54.018;9.300;2023-07-02T05:34:03;20.92;;;20.05;;
31045;SDS011;17711;54.018;9.300;2023-07-02T05:36:35;19.75;;;18.95;;
31045;SDS011;17711;54.018;9.300;2023-07-02T05:39:07;33.83;;;32.35;;
31045;SDS011;17711;54.018;9.300;2023-07-02T05:41:56;20.83;;;19.92;;
31045;SDS011;17711;54.018;9.300;2023-07-02T05:44:29;32.90;;;31.42;;
31045;SDS011;17711;54.018;9.300;2023-07-02T05:47:10;57.78;;;55.15;;
31045;SDS011;17711;54.018;9.300;2023-07-02T05:49:45;18.95;;;18.15;;
31045;SDS011;17711;54.018;9.300;2023-07-02T05:52:24;32.80;;;31.38;;
31045;SDS011;17711;54.018;9.300;2023-07-02T05:55:11;24.67;;;23.58;;
31045;SDS011;17711;54.018;9.300;2023-07-02T05:57:57;40.95;;;39.20;;
31045;SDS011;17711;54.018;9.300;2023-07-02T06:00:34;51.13;;;48.70;;
31045;SDS011;17711;54.018;9.300;2023-07-02T06:03:06;53.38;;;50.17;;
31045;SDS011;17711;54.018;9.300;2023-07-02T06:05:42;42.10;;;40.22;;
31045;SDS011;17711;54.018;9.300;2023-07-02T06:08:15;87.55;;;79.57;;
31045;SDS011;17711;54.018;9.300;2023-07-02T06:10:55;20.95;;;20.05;;
31045;SDS011;17711;54.018;9.300;2023-07-02T06:13:32;22.27;;;21.33;;
31045;SDS011;17711;54.018;9.300;2023-07-02T06:16:10;84.53;;;79.47;;
31045;SDS011;17711;54.018;9.300;2023-07-02T06:18:57;32.22;;;30.83;;
31045;SDS011;17711;54.018;9.300;2023-07-02T06:21:35;19.20;;;18.40;;
31045;SDS011;17711;54.018;9.300;2023-07-02T06:24:06;430.63;;;406.48;;
31045;SDS011;17711;54.018;9.300;2023-07-02T06:26:41;332.65;;;314.73;;
31045;SDS011;17711;54.018;9.300;2023-07-02T06:29:18;22.75;;;21.75;;
31045;SDS011;17711;54.018;9.300;2023-07-02T06:31:50;21.77;;;20.88;;
31045;SDS011;17711;54.018;9.300;2023-07-02T06:34:32;38.17;;;36.58;;
31045;SDS011;17711;54.018;9.300;2023-07-02T06:37:05;34.67;;;33.20;;
31045;SDS011;17711;54.018;9.300;2023-07-02T06:39:35;63.78;;;61.13;;
31045;SDS011;17711;54.018;9.300;2023-07-02T06:42:09;300.40;;;251.65;;
31045;SDS011;17711;54.018;9.300;2023-07-02T06:44:40;77.20;;;73.65;;
31045;SDS011;17711;54.018;9.300;2023-07-02T06:47:12;23.67;;;22.67;;
31045;SDS011;17711;54.018;9.300;2023-07-02T06:49:49;21.30;;;20.40;;
31045;SDS011;17711;54.018;9.300;2023-07-02T06:52:38;69.03;;;65.90;;
31045;SDS011;17711;54.018;9.300;2023-07-02T06:55:11;23.33;;;22.33;;
31045;SDS011;17711;54.018;9.300;2023-07-02T06:57:44;88.90;;;83.85;;
31045;SDS011;17711;54.018;9.300;2023-07-02T07:00:25;108.20;;;101.38;;
31045;SDS011;17711;54.018;9.300;2023-07-02T07:02:56;46.03;;;44.08;;
31045;SDS011;17711;54.018;9.300;2023-07-02T07:05:34;22.35;;;21.45;;
31045;SDS011;17711;54.018;9.300;2023-07-02T07:08:27;22.70;;;21.70;;
31045;SDS011;17711;54.018;9.300;2023-07-02T07:10:56;47.78;;;45.67;;
31045;SDS011;17711;54.018;9.300;2023-07-02T07:13:28;24.50;;;23.50;;
31045;SDS011;17711;54.018;9.300;2023-07-02T07:16:00;40.15;;;38.45;;
31045;SDS011;17711;54.018;9.300;2023-07-02T07:18:38;321.70;;;300.65;;
31045;SDS011;17711;54.018;9.300;2023-07-02T07:21:09;27.92;;;26.77;;
31045;SDS011;17711;54.018;9.300;2023-07-02T07:23:43;22.02;;;21.13;;
31045;SDS011;17711;54.018;9.300;2023-07-02T07:26:13;23.60;;;22.60;;
31045;SDS011;17711;54.018;9.300;2023-07-02T07:28:52;22.73;;;21.83;;
31045;SDS011;17711;54.018;9.300;2023-07-02T07:31:23;24.15;;;23.15;;
31045;SDS011;17711;54.018;9.300;2023-07-02T07:34:02;54.50;;;52.08;;
31045;SDS011;17711;54.018;9.300;2023-07-02T07:36:36;22.27;;;21.35;;
31045;SDS011;17711;54.018;9.300;2023-07-02T07:39:11;21.75;;;20.83;;
31045;SDS011;17711;54.018;9.300;2023-07-02T07:41:48;35.72;;;34.22;;
31045;SDS011;17711;54.018;9.300;2023-07-02T07:44:20;31.08;;;29.73;;
31045;SDS011;17711;54.018;9.300;2023-07-02T07:46:58;43.08;;;41.00;;
31045;SDS011;17711;54.018;9.300;2023-07-02T07:49:40;24.92;;;23.92;;
31045;SDS011;17711;54.018;9.300;2023-07-02T07:52:10;79.70;;;75.93;;
31045;SDS011;17711;54.018;9.300;2023-07-02T07:54:54;99.82;;;95.60;;
31045;SDS011;17711;54.018;9.300;2023-07-02T07:57:28;181.95;;;170.35;;
31045;SDS011;17711;54.018;9.300;2023-07-02T08:00:15;75.70;;;72.53;;
31045;SDS011;17711;54.018;9.300;2023-07-02T08:02:47;44.60;;;42.72;;
31045;SDS011;17711;54.018;9.300;2023-07-02T08:05:22;50.15;;;48.00;;
31045;SDS011;17711;54.018;9.300;2023-07-02T08:07:54;60.67;;;58.20;;
31045;SDS011;17711;54.018;9.300;2023-07-02T08:10:27;30.02;;;28.83;;
31045;SDS011;17711;54.018;9.300;2023-07-02T08:12:57;84.78;;;80.32;;
31045;SDS011;17711;54.018;9.300;2023-07-02T08:18:07;24.98;;;23.95;;
31045;SDS011;17711;54.018;9.300;2023-07-02T08:20:48;57.85;;;55.35;;
31045;SDS011;17711;54.018;9.300;2023-07-02T08:23:25;69.05;;;65.97;;
31045;SDS011;17711;54.018;9.300;2023-07-02T08:26:00;29.48;;;28.27;;
31045;SDS011;17711;54.018;9.300;2023-07-02T08:28:38;25.90;;;24.83;;
31045;SDS011;17711;54.018;9.300;2023-07-02T08:31:09;34.75;;;33.20;;
31045;SDS011;17711;54.018;9.300;2023-07-02T08:33:44;30.33;;;29.13;;
31045;SDS011;17711;54.018;9.300;2023-07-02T08:36:18;54.67;;;51.78;;
31045;SDS011;17711;54.018;9.300;2023-07-02T08:38:54;27.90;;;26.75;;
31045;SDS011;17711;54.018;9.300;2023-07-02T08:41:40;43.20;;;41.22;;
31045;SDS011;17711;54.018;9.300;2023-07-02T08:44:18;28.98;;;27.70;;
31045;SDS011;17711;54.018;9.300;2023-07-02T08:47:05;34.58;;;33.17;;
31045;SDS011;17711;54.018;9.300;2023-07-02T08:49:50;30.35;;;29.10;;
31045;SDS011;17711;54.018;9.300;2023-07-02T08:52:21;30.80;;;29.40;;
31045;SDS011;17711;54.018;9.300;2023-07-02T08:55:00;76.60;;;73.18;;
31045;SDS011;17711;54.018;9.300;2023-07-02T08:57:47;141.77;;;135.40;;
31045;SDS011;17711;54.018;9.300;2023-07-02T09:00:26;84.05;;;78.85;;
31045;SDS011;17711;54.018;9.300;2023-07-02T09:05:31;89.67;;;85.57;;
31045;SDS011;17711;54.018;9.300;2023-07-02T09:08:01;54.50;;;52.08;;
31045;SDS011;17711;54.018;9.300;2023-07-02T09:10:40;89.45;;;85.22;;
31045;SDS011;17711;54.018;9.300;2023-07-02T09:13:14;65.13;;;62.28;;
31045;SDS011;17711;54.018;9.300;2023-07-02T09:15:49;61.72;;;59.15;;
31045;SDS011;17711;54.018;9.300;2023-07-02T09:18:25;699.60;;;654.67;;
31045;SDS011;17711;54.018;9.300;2023-07-02T09:21:05;45.00;;;43.10;;
31045;SDS011;17711;54.018;9.300;2023-07-02T09:23:40;141.23;;;134.73;;
31045;SDS011;17711;54.018;9.300;2023-07-02T09:26:19;46.50;;;44.40;;
31045;SDS011;17711;54.018;9.300;2023-07-02T09:29:01;53.20;;;50.78;;
31045;SDS011;17711;54.018;9.300;2023-07-02T09:31:44;110.57;;;105.38;;
31045;SDS011;17711;54.018;9.300;2023-07-02T09:34:37;107.13;;;102.32;;
31045;SDS011;17711;54.018;9.300;2023-07-02T09:37:11;1150.82;;;999.90;;
31045;SDS011;17711;54.018;9.300;2023-07-02T09:39:42;35.75;;;34.25;;
31045;SDS011;17711;54.018;9.300;2023-07-02T09:42:15;187.65;;;177.32;;
31045;SDS011;17711;54.018;9.300;2023-07-02T09:44:53;92.28;;;87.35;;
31045;SDS011;17711;54.018;9.300;2023-07-02T09:47:29;83.15;;;78.47;;
31045;SDS011;17711;54.018;9.300;2023-07-02T09:50:07;60.47;;;57.75;;
31045;SDS011;17711;54.018;9.300;2023-07-02T09:52:41;41.33;;;39.58;;
31045;SDS011;17711;54.018;9.300;2023-07-02T09:55:24;144.75;;;136.43;;
31045;SDS011;17711;54.018;9.300;2023-07-02T09:58:05;106.57;;;101.57;;
31045;SDS011;17711;54.018;9.300;2023-07-02T10:00:47;219.27;;;205.43;;
31045;SDS011;17711;54.018;9.300;2023-07-02T10:03:29;93.13;;;88.68;;
31045;SDS011;17711;54.018;9.300;2023-07-02T10:06:06;42.85;;;41.05;;
31045;SDS011;17711;54.018;9.300;2023-07-02T10:08:40;141.48;;;133.82;;
31045;SDS011;17711;54.018;9.300;2023-07-02T10:11:11;224.48;;;207.70;;
31045;SDS011;17711;54.018;9.300;2023-07-02T10:13:43;393.77;;;266.88;;
31045;SDS011;17711;54.018;9.300;2023-07-02T10:16:26;55.85;;;53.33;;
31045;SDS011;17711;54.018;9.300;2023-07-02T10:19:09;36.15;;;34.65;;
31045;SDS011;17711;54.018;9.300;2023-07-02T10:21:39;69.15;;;65.18;;
31045;SDS011;17711;54.018;9.300;2023-07-02T10:24:16;183.43;;;175.43;;
31045;SDS011;17711;54.018;9.300;2023-07-02T10:26:53;605.80;;;572.13;;
31045;SDS011;17711;54.018;9.300;2023-07-02T10:29:38;179.93;;;169.18;;
31045;SDS011;17711;54.018;9.300;2023-07-02T10:32:29;189.45;;;179.93;;
31045;SDS011;17711;54.018;9.300;2023-07-02T10:35:01;152.43;;;144.15;;
31045;SDS011;17711;54.018;9.300;2023-07-02T10:37:45;200.82;;;190.85;;
31045;SDS011;17711;54.018;9.300;2023-07-02T10:40:33;180.05;;;170.95;;
31045;SDS011;17711;54.018;9.300;2023-07-02T10:43:12;167.27;;;111.10;;
31045;SDS011;17711;54.018;9.300;2023-07-02T10:45:56;122.03;;;115.60;;
31045;SDS011;17711;54.018;9.300;2023-07-02T10:48:43;1043.40;;;541.58;;
31045;SDS011;17711;54.018;9.300;2023-07-02T10:51:22;148.23;;;140.50;;
31045;SDS011;17711;54.018;9.300;2023-07-02T10:54:00;55.45;;;53.05;;
31045;SDS011;17711;54.018;9.300;2023-07-02T10:56:42;78.90;;;71.38;;
31045;SDS011;17711;54.018;9.300;2023-07-02T10:59:25;90.53;;;84.20;;
31045;SDS011;17711;54.018;9.300;2023-07-02T11:01:57;39.22;;;37.53;;
31045;SDS011;17711;54.018;9.300;2023-07-02T11:04:30;166.23;;;157.93;;
31045;SDS011;17711;54.018;9.300;2023-07-02T11:07:05;44.13;;;42.00;;
31045;SDS011;17711;54.018;9.300;2023-07-02T11:09:36;140.48;;;131.65;;
31045;SDS011;17711;54.018;9.300;2023-07-02T11:12:26;105.10;;;99.85;;
31045;SDS011;17711;54.018;9.300;2023-07-02T11:15:09;164.93;;;156.20;;
31045;SDS011;17711;54.018;9.300;2023-07-02T11:17:48;70.57;;;67.38;;
31045;SDS011;17711;54.018;9.300;2023-07-02T11:20:34;1999.90;;;999.90;;
31045;SDS011;17711;54.018;9.300;2023-07-02T11:23:16;1999.90;;;999.90;;
31045;SDS011;17711;54.018;9.300;2023-07-02T11:25:57;1174.90;;;861.53;;
31045;SDS011;17711;54.018;9.300;2023-07-02T11:28:47;46.95;;;44.95;;
31045;SDS011;17711;54.018;9.300;2023-07-02T11:31:26;1999.90;;;999.90;;
31045;SDS011;17711;54.018;9.300;2023-07-02T11:33:59;82.28;;;78.80;;
31045;SDS011;17711;54.018;9.300;2023-07-02T11:36:40;1999.90;;;999.90;;
31045;SDS011;17711;54.018;9.300;2023-07-02T11:39:12;1999.90;;;999.90;;
31045;SDS011;17711;54.018;9.300;2023-07-02T11:41:43;1999.90;;;999.90;;
31045;SDS011;17711;54.018;9.300;2023-07-02T11:44:15;677.90;;;344.10;;
31045;SDS011;17711;54.018;9.300;2023-07-02T11:46:48;1999.90;;;999.90;;
31045;SDS011;17711;54.018;9.300;2023-07-02T11:49:24;122.90;;;115.70;;
31045;SDS011;17711;54.018;9.300;2023-07-02T11:55:01;58.25;;;55.80;;
31045;SDS011;17711;54.018;9.300;2023-07-02T11:57:36;78.18;;;74.10;;
31045;SDS011;17711;54.018;9.300;2023-07-02T12:00:09;1999.90;;;999.90;;
31045;SDS011;17711;54.018;9.300;2023-07-02T12:02:46;140.13;;;132.40;;
31045;SDS011;17711;54.018;9.300;2023-07-02T12:05:19;93.57;;;89.22;;
31045;SDS011;17711;54.018;9.300;2023-07-02T12:08:09;1999.90;;;999.90;;
31045;SDS011;17711;54.018;9.300;2023-07-02T12:10:42;1405.38;;;828.75;;
31045;SDS011;17711;54.018;9.300;2023-07-02T12:13:15;1999.90;;;999.90;;
31045;SDS011;17711;54.018;9.300;2023-07-02T12:15:55;1999.90;;;999.90;;
31045;SDS011;17711;54.018;9.300;2023-07-02T12:18:29;1999.90;;;999.90;;
31045;SDS011;17711;54.018;9.300;2023-07-02T12:21:12;71.35;;;67.80;;
31045;SDS011;17711;54.018;9.300;2023-07-02T12:23:52;181.90;;;171.93;;
31045;SDS011;17711;54.018;9.300;2023-07-02T12:26:35;91.75;;;87.35;;
31045;SDS011;17711;54.018;9.300;2023-07-02T12:29:12;310.77;;;294.60;;
31045;SDS011;17711;54.018;9.300;2023-07-02T12:32:01;68.85;;;65.72;;
31045;SDS011;17711;54.018;9.300;2023-07-02T12:34:45;1999.90;;;999.90;;
31045;SDS011;17711;54.018;9.300;2023-07-02T12:37:28;1999.90;;;999.90;;
31045;SDS011;17711;54.018;9.300;2023-07-02T12:40:07;1215.43;;;999.90;;
31045;SDS011;17711;54.018;9.300;2023-07-02T12:42:42;1999.90;;;999.90;;
31045;SDS011;17711;54.018;9.300;2023-07-02T12:45:17;1999.90;;;999.90;;
31045;SDS011;17711;54.018;9.300;2023-07-02T12:47:57;1999.90;;;999.90;;
31045;SDS011;17711;54.018;9.300;2023-07-02T12:50:52;1999.90;;;999.90;;
31045;SDS011;17711;54.018;9.300;2023-07-02T12:53:29;1999.90;;;999.90;;
31045;SDS011;17711;54.018;9.300;2023-07-02T12:56:18;1999.90;;;999.90;;
31045;SDS011;17711;54.018;9.300;2023-07-02T12:58:50;1999.90;;;999.90;;
31045;SDS011;17711;54.018;9.300;2023-07-02T13:01:34;1999.90;;;999.90;;
31045;SDS011;17711;54.018;9.300;2023-07-02T13:04:05;1999.90;;;999.90;;
31045;SDS011;17711;54.018;9.300;2023-07-02T13:06:53;1999.90;;;999.90;;
31045;SDS011;17711;54.018;9.300;2023-07-02T13:09:27;1999.90;;;999.90;;
31045;SDS011;17711;54.018;9.300;2023-07-02T13:12:07;1999.90;;;999.90;;
31045;SDS011;17711;54.018;9.300;2023-07-02T13:14:40;1999.90;;;999.90;;
31045;SDS011;17711;54.018;9.300;2023-07-02T13:17:19;1999.90;;;999.90;;
31045;SDS011;17711;54.018;9.300;2023-07-02T13:19:55;1999.90;;;999.90;;
31045;SDS011;17711;54.018;9.300;2023-07-02T13:22:36;1999.90;;;999.90;;
31045;SDS011;17711;54.018;9.300;2023-07-02T13:25:14;1999.90;;;999.90;;
31045;SDS011;17711;54.018;9.300;2023-07-02T13:28:00;1999.90;;;999.90;;
31045;SDS011;17711;54.018;9.300;2023-07-02T13:30:36;1999.90;;;999.90;;
31045;SDS011;17711;54.018;9.300;2023-07-02T13:33:25;1999.90;;;999.90;;
31045;SDS011;17711;54.018;9.300;2023-07-02T13:35:57;1999.90;;;999.90;;
31045;SDS011;17711;54.018;9.300;2023-07-02T13:38:30;1999.90;;;999.90;;
31045;SDS011;17711;54.018;9.300;2023-07-02T13:41:02;1999.90;;;999.90;;
31045;SDS011;17711;54.018;9.300;2023-07-02T13:43:51;1999.90;;;999.90;;
31045;SDS011;17711;54.018;9.300;2023-07-02T13:46:23;1999.90;;;999.90;;
31045;SDS011;17711;54.018;9.300;2023-07-02T13:49:09;1999.90;;;999.90;;
31045;SDS011;17711;54.018;9.300;2023-07-02T13:51:39;1999.90;;;999.90;;
31045;SDS011;17711;54.018;9.300;2023-07-02T13:54:26;1999.90;;;999.90;;
31045;SDS011;17711;54.018;9.300;2023-07-02T13:56:56;1999.90;;;999.90;;
31045;SDS011;17711;54.018;9.300;2023-07-02T13:59:55;1999.90;;;999.90;;
31045;SDS011;17711;54.018;9.300;2023-07-02T14:02:32;1999.90;;;999.90;;
31045;SDS011;17711;54.018;9.300;2023-07-02T14:05:19;1999.90;;;999.90;;
31045;SDS011;17711;54.018;9.300;2023-07-02T14:07:52;1999.90;;;999.90;;
31045;SDS011;17711;54.018;9.300;2023-07-02T14:10:22;1999.90;;;999.90;;
31045;SDS011;17711;54.018;9.300;2023-07-02T14:12:54;1999.90;;;999.90;;
31045;SDS011;17711;54.018;9.300;2023-07-02T14:15:49;1999.90;;;999.90;;
31045;SDS011;17711;54.018;9.300;2023-07-02T14:18:21;1999.90;;;999.90;;
31045;SDS011;17711;54.018;9.300;2023-07-02T14:21:09;1999.90;;;999.90;;
31045;SDS011;17711;54.018;9.300;2023-07-02T14:23:50;1999.90;;;999.90;;
31045;SDS011;17711;54.018;9.300;2023-07-02T14:26:24;1999.90;;;999.90;;
31045;SDS011;17711;54.018;9.300;2023-07-02T14:31:31;1999.90;;;999.90;;
31045;SDS011;17711;54.018;9.300;2023-07-02T14:34:02;1999.90;;;999.90;;
31045;SDS011;17711;54.018;9.300;2023-07-02T14:36:32;1999.90;;;999.90;;
31045;SDS011;17711;54.018;9.300;2023-07-02T14:39:13;1999.90;;;999.90;;
31045;SDS011;17711;54.018;9.300;2023-07-02T14:41:44;1999.90;;;999.90;;
31045;SDS011;17711;54.018;9.300;2023-07-02T14:44:16;1999.90;;;999.90;;
31045;SDS011;17711;54.018;9.300;2023-07-02T14:47:05;1999.90;;;999.90;;
31045;SDS011;17711;54.018;9.300;2023-07-02T14:49:50;1999.90;;;999.90;;
31045;SDS011;17711;54.018;9.300;2023-07-02T14:52:26;1999.90;;;999.90;;
31045;SDS011;17711;54.018;9.300;2023-07-02T14:54:59;1999.90;;;999.90;;
31045;SDS011;17711;54.018;9.300;2023-07-02T14:57:44;1999.90;;;999.90;;
31045;SDS011;17711;54.018;9.300;2023-07-02T15:00:17;99.72;;;95.30;;
31045;SDS011;17711;54.018;9.300;2023-07-02T15:02:53;1999.90;;;999.90;;
31045;SDS011;17711;54.018;9.300;2023-07-02T15:05:32;60.47;;;57.88;;
31045;SDS011;17711;54.018;9.300;2023-07-02T15:10:38;1999.90;;;999.90;;
31045;SDS011;17711;54.018;9.300;2023-07-02T15:13:22;1999.90;;;999.90;;
31045;SDS011;17711;54.018;9.300;2023-07-02T15:15:55;1999.90;;;999.90;;
31045;SDS011;17711;54.018;9.300;2023-07-02T15:18:48;1999.90;;;999.90;;
31045;SDS011;17711;54.018;9.300;2023-07-02T15:21:18;1999.90;;;999.90;;
31045;SDS011;17711;54.018;9.300;2023-07-02T15:23:47;1999.90;;;999.90;;
31045;SDS011;17711;54.018;9.300;2023-07-02T15:26:35;1999.90;;;999.90;;
31045;SDS011;17711;54.018;9.300;2023-07-02T15:29:06;1999.90;;;999.90;;
31045;SDS011;17711;54.018;9.300;2023-07-02T15:31:46;1999.90;;;999.90;;